createdAt,value
2022-12-22T00:01:27.985Z,30.35
2022-12-22T00:04:15.352Z,32.00
2022-12-22T00:07:01.867Z,31.15
2022-12-22T00:09:47.987Z,33.97
2022-12-22T00:12:34.774Z,31.80
2022-12-22T00:15:20.996Z,32.53
2022-12-22T00:18:06.705Z,32.35
2022-12-22T00:20:52.731Z,34.05
2022-12-22T00:23:38.861Z,33.75
2022-12-22T00:26:24.816Z,34.58
2022-12-22T00:29:10.809Z,33.83
2022-12-22T00:31:56.888Z,33.85
2022-12-22T00:34:42.800Z,34.88
2022-12-22T00:37:31.290Z,33.67
2022-12-22T00:40:17.997Z,35.58
2022-12-22T00:43:03.792Z,35.17
2022-12-22T00:45:50.115Z,37.78
2022-12-22T00:48:46.089Z,36.63
2022-12-22T00:51:32.216Z,36.08
2022-12-22T00:54:18.048Z,37.00
2022-12-22T00:57:04.225Z,37.45
2022-12-22T00:59:50.455Z,36.70
2022-12-22T01:02:36.700Z,38.30
2022-12-22T01:05:23.087Z,35.90
2022-12-22T01:08:09.181Z,39.13
2022-12-22T01:10:55.241Z,37.70
2022-12-22T01:13:41.396Z,38.90
2022-12-22T01:16:30.526Z,40.33
2022-12-22T01:19:16.742Z,41.05
2022-12-22T01:22:02.799Z,39.08
2022-12-22T01:24:49.697Z,39.25
2022-12-22T01:27:36.111Z,39.83
2022-12-22T01:30:22.214Z,39.53
2022-12-22T01:33:08.027Z,40.92
2022-12-22T01:35:54.490Z,42.08
2022-12-22T01:38:40.181Z,39.30
2022-12-22T01:41:29.797Z,39.90
2022-12-22T01:44:15.763Z,39.97
2022-12-22T01:47:02.921Z,41.03
2022-12-22T01:49:51.420Z,39.72
2022-12-22T01:52:38.842Z,39.55
2022-12-22T01:55:27.092Z,37.53
2022-12-22T01:58:13.254Z,40.08
2022-12-22T02:01:00.286Z,41.45
2022-12-22T02:03:46.433Z,41.22
2022-12-22T02:06:45.768Z,42.53
2022-12-22T02:09:46.874Z,40.50
2022-12-22T02:12:32.914Z,40.03
2022-12-22T02:15:27.214Z,42.95
2022-12-22T02:18:19.124Z,41.83
2022-12-22T02:24:05.304Z,39.55
2022-12-22T02:26:53.372Z,40.03
2022-12-22T02:29:41.261Z,40.25
2022-12-22T02:32:27.351Z,39.08
2022-12-22T02:35:13.483Z,39.92
2022-12-22T02:38:08.230Z,41.42
2022-12-22T02:40:59.797Z,40.15
2022-12-22T02:44:04.552Z,40.75
2022-12-22T02:46:59.233Z,40.72
2022-12-22T02:49:58.406Z,40.55
2022-12-22T02:52:47.988Z,41.28
2022-12-22T02:55:34.687Z,40.33
2022-12-22T02:58:21.048Z,41.53
2022-12-22T03:01:07.579Z,42.80
2022-12-22T03:03:53.767Z,39.55
2022-12-22T03:06:39.904Z,40.78
2022-12-22T03:09:25.816Z,40.58
2022-12-22T03:12:12.647Z,39.22
2022-12-22T03:14:58.763Z,41.47
2022-12-22T03:17:44.984Z,40.80
2022-12-22T03:20:31.133Z,42.55
2022-12-22T03:23:22.484Z,41.75
2022-12-22T03:25:55.672Z,42.63
2022-12-22T03:28:23.831Z,44.40
2022-12-22T03:30:55.803Z,44.20
2022-12-22T03:33:23.317Z,44.60
2022-12-22T03:35:50.638Z,45.95
2022-12-22T03:38:17.942Z,45.33
2022-12-22T03:40:45.212Z,43.97
2022-12-22T03:43:34.906Z,44.65
2022-12-22T03:46:21.598Z,43.55
2022-12-22T03:49:08.839Z,43.63
2022-12-22T03:51:37.140Z,43.90
2022-12-22T03:54:04.749Z,44.28
2022-12-22T03:56:32.042Z,45.40
2022-12-22T03:58:59.617Z,45.72
2022-12-22T04:01:27.088Z,45.50
2022-12-22T04:03:54.482Z,45.58
2022-12-22T04:06:22.079Z,44.10
2022-12-22T04:08:49.609Z,43.13
2022-12-22T04:11:36.452Z,44.08
2022-12-22T04:14:03.899Z,43.30
2022-12-22T04:16:31.726Z,47.42
2022-12-22T04:18:59.127Z,46.20
2022-12-22T04:21:26.799Z,45.55
2022-12-22T04:23:54.167Z,46.42
2022-12-22T04:26:22.567Z,47.17
2022-12-22T04:28:50.245Z,47.80
2022-12-22T04:31:17.607Z,43.67
2022-12-22T04:33:44.894Z,45.03
2022-12-22T04:36:12.310Z,44.95
2022-12-22T04:38:39.649Z,44.97
2022-12-22T04:41:07.635Z,45.17
2022-12-22T04:43:35.437Z,46.00
2022-12-22T04:46:02.940Z,46.05
2022-12-22T04:48:30.605Z,48.15
2022-12-22T04:50:59.563Z,46.22
2022-12-22T04:53:27.877Z,47.67
2022-12-22T04:56:02.796Z,47.63
2022-12-22T04:58:30.505Z,50.50
2022-12-22T05:00:57.934Z,47.85
2022-12-22T05:03:25.637Z,48.50
2022-12-22T05:05:53.326Z,47.70
2022-12-22T05:08:20.629Z,48.03
2022-12-22T05:10:47.937Z,46.55
2022-12-22T05:13:15.184Z,48.63
2022-12-22T05:15:42.476Z,49.33
2022-12-22T05:18:09.812Z,47.17
2022-12-22T05:20:37.123Z,47.70
2022-12-22T05:23:04.432Z,48.58
2022-12-22T05:25:35.349Z,47.17
2022-12-22T05:28:03.099Z,49.40
2022-12-22T05:30:30.393Z,46.20
2022-12-22T05:32:57.664Z,47.13
2022-12-22T05:35:24.977Z,46.65
2022-12-22T05:37:52.287Z,48.53
2022-12-22T05:40:19.609Z,48.60
2022-12-22T05:42:46.876Z,46.72
2022-12-22T05:45:18.312Z,45.47
2022-12-22T05:47:46.555Z,48.97
2022-12-22T05:50:14.274Z,48.17
2022-12-22T05:52:41.897Z,47.38
2022-12-22T05:55:09.759Z,47.58
2022-12-22T05:57:37.034Z,48.00
2022-12-22T06:00:06.229Z,46.97
2022-12-22T06:02:33.707Z,47.03
2022-12-22T06:05:01.083Z,46.83
2022-12-22T06:07:28.444Z,46.55
2022-12-22T06:09:55.739Z,46.58
2022-12-22T06:12:23.176Z,44.83
2022-12-22T06:14:50.444Z,46.45
2022-12-22T06:17:17.784Z,44.10
2022-12-22T06:19:45.113Z,45.40
2022-12-22T06:22:12.371Z,42.90
2022-12-22T06:24:39.700Z,44.55
2022-12-22T06:27:07.076Z,43.00
2022-12-22T06:29:34.312Z,43.92
2022-12-22T06:32:01.617Z,44.85
2022-12-22T06:34:28.923Z,44.92
2022-12-22T06:36:56.242Z,43.92
2022-12-22T06:39:23.547Z,42.38
2022-12-22T06:42:09.230Z,40.38
2022-12-22T06:44:36.505Z,39.95
2022-12-22T06:47:03.814Z,40.03
2022-12-22T06:49:31.073Z,39.60
2022-12-22T06:51:59.330Z,44.00
2022-12-22T06:54:26.695Z,50.30
2022-12-22T06:56:54.006Z,45.47
2022-12-22T06:59:21.330Z,38.90
2022-12-22T07:01:48.728Z,40.88
2022-12-22T07:04:20.692Z,36.75
2022-12-22T07:06:48.544Z,37.05
2022-12-22T07:09:15.839Z,35.92
2022-12-22T07:11:43.210Z,34.95
2022-12-22T07:14:10.500Z,32.10
2022-12-22T07:16:37.841Z,32.13
2022-12-22T07:19:05.223Z,31.50
2022-12-22T07:21:32.585Z,34.20
2022-12-22T07:23:59.864Z,32.88
2022-12-22T07:26:27.154Z,30.52
2022-12-22T07:28:54.521Z,28.20
2022-12-22T07:31:21.849Z,28.40
2022-12-22T07:33:49.179Z,30.13
2022-12-22T07:36:20.517Z,26.98
2022-12-22T07:38:50.118Z,26.58
2022-12-22T07:41:36.891Z,28.27
2022-12-22T07:44:05.051Z,27.13
2022-12-22T07:46:34.678Z,27.75
2022-12-22T07:49:20.818Z,27.73
2022-12-22T07:51:48.348Z,27.52
2022-12-22T07:54:16.729Z,26.70
2022-12-22T07:56:45.080Z,27.63
2022-12-22T07:59:12.708Z,26.08
2022-12-22T08:01:42.174Z,27.08
2022-12-22T08:04:10.407Z,26.77
2022-12-22T08:06:37.740Z,43.92
2022-12-22T08:09:05.819Z,136.48
2022-12-22T08:11:33.303Z,67.28
2022-12-22T08:14:01.810Z,30.73
2022-12-22T08:16:29.864Z,27.60
2022-12-22T08:18:57.279Z,28.02
2022-12-22T08:21:25.045Z,29.77
2022-12-22T08:23:52.513Z,29.90
2022-12-22T08:26:24.689Z,29.55
2022-12-22T08:28:55.134Z,30.08
2022-12-22T08:31:25.369Z,31.73
2022-12-22T08:33:53.218Z,32.55
2022-12-22T08:36:20.561Z,32.90
2022-12-22T08:38:48.043Z,33.00
2022-12-22T08:41:37.026Z,34.10
2022-12-22T08:44:04.332Z,44.00
2022-12-22T08:46:31.758Z,109.47
2022-12-22T08:48:59.347Z,37.17
2022-12-22T08:51:26.627Z,33.40
2022-12-22T08:54:09.157Z,30.35
2022-12-22T08:56:36.563Z,31.20
2022-12-22T08:59:05.467Z,25.38
2022-12-22T09:01:33.594Z,26.38
2022-12-22T09:04:00.977Z,25.65
2022-12-22T09:06:33.195Z,26.83
2022-12-22T09:09:04.941Z,25.77
2022-12-22T09:11:32.659Z,26.02
2022-12-22T09:14:00.941Z,28.33
2022-12-22T09:16:30.300Z,25.70
2022-12-22T09:18:57.710Z,24.02
2022-12-22T09:21:25.427Z,25.60
2022-12-22T09:23:52.931Z,25.17
2022-12-22T09:26:21.885Z,24.10
2022-12-22T09:28:50.783Z,26.08
2022-12-22T09:31:18.673Z,23.77
2022-12-22T09:33:46.170Z,23.45
2022-12-22T09:36:15.453Z,24.08
2022-12-22T09:38:42.732Z,21.83
2022-12-22T09:41:10.802Z,23.23
2022-12-22T09:43:38.279Z,22.10
2022-12-22T09:46:05.631Z,22.17
2022-12-22T09:48:37.816Z,22.23
2022-12-22T09:51:05.315Z,23.98
2022-12-22T09:53:33.055Z,24.23
2022-12-22T09:56:00.404Z,25.02
2022-12-22T09:58:32.076Z,22.85
2022-12-22T10:01:11.746Z,22.52
2022-12-22T10:03:45.004Z,22.02
2022-12-22T10:06:22.316Z,20.08
2022-12-22T10:08:49.704Z,36.65
2022-12-22T10:11:18.108Z,39.45
2022-12-22T10:13:46.237Z,21.17
2022-12-22T10:16:17.670Z,21.88
2022-12-22T10:18:55.369Z,21.55
2022-12-22T10:21:24.055Z,23.42
2022-12-22T10:23:51.363Z,21.83
2022-12-22T10:26:28.583Z,23.15
2022-12-22T10:29:02.217Z,24.60
2022-12-22T10:31:31.376Z,24.95
2022-12-22T10:34:10.901Z,23.35
2022-12-22T10:36:38.353Z,23.65
2022-12-22T10:39:08.169Z,23.50
2022-12-22T10:41:46.282Z,22.30
2022-12-22T10:44:16.634Z,22.77
2022-12-22T10:46:43.894Z,21.05
2022-12-22T10:49:16.109Z,20.65
2022-12-22T10:51:44.851Z,21.85
2022-12-22T10:54:24.674Z,61.40
2022-12-22T10:57:00.097Z,20.08
2022-12-22T10:59:27.478Z,19.38
2022-12-22T11:01:54.968Z,20.05
2022-12-22T11:04:29.286Z,19.50
2022-12-22T11:07:10.401Z,20.17
2022-12-22T11:09:37.789Z,19.60
2022-12-22T11:12:30.197Z,19.17
2022-12-22T11:15:10.131Z,18.77
2022-12-22T11:17:37.647Z,17.83
2022-12-22T11:20:08.179Z,20.05
2022-12-22T11:22:40.111Z,19.75
2022-12-22T11:25:13.479Z,20.52
2022-12-22T11:27:58.904Z,19.67
2022-12-22T11:30:35.664Z,20.08
2022-12-22T11:33:02.929Z,18.27
2022-12-22T11:35:33.093Z,18.98
2022-12-22T11:38:21.161Z,17.08
2022-12-22T11:41:08.375Z,16.73
2022-12-22T11:43:41.685Z,18.73
2022-12-22T11:46:27.259Z,15.55
2022-12-22T11:48:54.582Z,16.88
2022-12-22T11:51:27.151Z,14.82
2022-12-22T11:53:57.571Z,36.28
2022-12-22T11:56:25.213Z,15.30
2022-12-22T11:59:08.136Z,14.80
2022-12-22T12:01:38.518Z,14.10
2022-12-22T12:04:12.055Z,12.00
2022-12-22T12:06:48.607Z,11.50
2022-12-22T12:09:34.345Z,10.95
2022-12-22T12:12:10.465Z,10.13
2022-12-22T12:14:37.742Z,9.48
2022-12-22T12:17:11.032Z,8.40
2022-12-22T12:19:40.190Z,8.25
2022-12-22T12:22:11.110Z,9.95
2022-12-22T12:24:56.779Z,7.70
2022-12-22T12:27:31.287Z,7.88
2022-12-22T12:30:36.950Z,7.30
2022-12-22T12:32:58.319Z,7.20
2022-12-22T12:35:44.507Z,7.57
2022-12-22T12:38:32.576Z,6.40
2022-12-22T12:41:18.206Z,7.00
2022-12-22T12:43:45.854Z,6.32
2022-12-22T12:46:32.025Z,6.22
2022-12-22T12:49:00.920Z,5.28
2022-12-22T12:51:57.664Z,5.35
2022-12-22T12:54:27.826Z,4.63
2022-12-22T12:57:10.728Z,4.53
2022-12-22T12:59:38.023Z,4.35
2022-12-22T13:02:05.434Z,4.40
2022-12-22T13:04:51.388Z,4.20
2022-12-22T13:07:38.571Z,4.68
2022-12-22T13:10:18.825Z,4.50
2022-12-22T13:12:54.442Z,3.50
2022-12-22T13:15:32.980Z,3.95
2022-12-22T13:18:01.268Z,3.90
2022-12-22T13:20:31.551Z,4.18
2022-12-22T13:22:59.974Z,3.58
2022-12-22T13:25:31.458Z,3.28
2022-12-22T13:27:59.322Z,3.72
2022-12-22T13:30:30.136Z,4.45
2022-12-22T13:33:02.174Z,4.70
2022-12-22T13:35:44.824Z,4.10
2022-12-22T13:38:34.332Z,5.15
2022-12-22T13:41:04.246Z,5.57
2022-12-22T13:43:32.777Z,7.60
2022-12-22T13:46:02.107Z,7.15
2022-12-22T13:48:30.615Z,7.35
2022-12-22T13:50:59.510Z,6.72
2022-12-22T13:56:23.476Z,5.78
2022-12-22T13:58:56.376Z,6.85
2022-12-22T14:01:23.675Z,6.10
2022-12-22T14:04:03.922Z,6.68
2022-12-22T14:06:36.227Z,5.78
2022-12-22T14:09:15.491Z,6.88
2022-12-22T14:11:51.225Z,5.75
2022-12-22T14:14:30.132Z,6.15
2022-12-22T14:16:59.142Z,5.75
2022-12-22T14:19:27.501Z,5.93
2022-12-22T14:22:20.918Z,5.45
2022-12-22T14:24:54.692Z,5.82
2022-12-22T14:27:36.830Z,5.13
2022-12-22T14:30:06.223Z,5.07
2022-12-22T14:32:38.843Z,5.47
2022-12-22T14:35:26.557Z,4.70
2022-12-22T14:37:55.560Z,4.72
2022-12-22T14:40:36.660Z,5.10
2022-12-22T14:43:05.883Z,5.05
2022-12-22T14:45:33.792Z,4.93
2022-12-22T14:48:01.147Z,5.15
2022-12-22T14:50:29.951Z,5.10
2022-12-22T14:52:59.231Z,4.90
2022-12-22T14:55:26.584Z,4.65
2022-12-22T14:58:12.491Z,4.43
2022-12-22T15:00:41.334Z,4.82
2022-12-22T15:03:27.933Z,4.97
2022-12-22T15:05:55.341Z,4.43
2022-12-22T15:08:41.926Z,4.70
2022-12-22T15:11:13.293Z,4.75
2022-12-22T15:13:40.586Z,5.43
2022-12-22T15:16:08.742Z,4.70
2022-12-22T15:18:36.090Z,5.10
2022-12-22T15:21:03.554Z,4.32
2022-12-22T15:23:30.834Z,4.85
2022-12-22T15:25:58.088Z,4.88
2022-12-22T15:28:25.359Z,4.43
2022-12-22T15:30:52.708Z,4.60
2022-12-22T15:33:20.303Z,4.72
2022-12-22T15:35:47.780Z,4.60
2022-12-22T15:38:16.885Z,4.38
2022-12-22T15:40:44.324Z,4.78
2022-12-22T15:43:36.808Z,5.03
2022-12-22T15:45:59.637Z,58.90
2022-12-22T15:48:33.131Z,8.10
2022-12-22T15:51:00.972Z,4.20
2022-12-22T15:53:28.341Z,5.47
2022-12-22T15:55:58.485Z,5.28
2022-12-22T15:58:29.098Z,5.00
2022-12-22T16:00:56.952Z,5.35
2022-12-22T16:03:24.587Z,5.68
2022-12-22T16:05:52.946Z,85.43
2022-12-22T16:08:22.098Z,9.68
2022-12-22T16:10:50.165Z,5.72
2022-12-22T16:13:18.314Z,5.20
2022-12-22T16:15:45.703Z,5.90
2022-12-22T16:18:13.394Z,5.47
2022-12-22T16:20:42.242Z,5.20
2022-12-22T16:23:14.464Z,6.10
2022-12-22T16:25:43.405Z,6.10
2022-12-22T16:28:15.034Z,6.50
2022-12-22T16:33:12.774Z,6.65
2022-12-22T16:35:40.512Z,6.30
2022-12-22T16:38:13.033Z,5.40
2022-12-22T16:40:45.259Z,5.97
2022-12-22T16:45:59.358Z,5.25
2022-12-22T16:48:33.965Z,4.93
2022-12-22T16:51:01.272Z,4.35
2022-12-22T16:53:29.708Z,5.20
2022-12-22T16:55:57.059Z,4.32
2022-12-22T16:58:24.357Z,5.00
2022-12-22T17:00:51.690Z,5.00
2022-12-22T17:03:26.322Z,39.35
2022-12-22T17:06:01.507Z,7.20
2022-12-22T17:08:28.797Z,5.47
2022-12-22T17:10:57.114Z,5.78
2022-12-22T17:13:24.695Z,6.53
2022-12-22T17:15:52.096Z,6.63
2022-12-22T17:18:23.232Z,6.72
2022-12-22T17:20:55.456Z,6.75
2022-12-22T17:23:25.853Z,7.80
2022-12-22T17:25:53.164Z,8.13
2022-12-22T17:28:20.597Z,9.57
2022-12-22T17:30:47.978Z,9.15
2022-12-22T17:33:18.575Z,10.55
2022-12-22T17:35:48.354Z,10.40
2022-12-22T17:38:16.356Z,10.23
2022-12-22T17:40:43.858Z,9.63
2022-12-22T17:43:15.166Z,10.52
2022-12-22T17:45:43.056Z,11.45
2022-12-22T17:48:10.477Z,11.40
2022-12-22T17:50:37.813Z,12.70
2022-12-22T17:53:05.931Z,11.82
2022-12-22T17:56:06.634Z,12.45
2022-12-22T17:58:20.616Z,12.35
2022-12-22T18:00:47.918Z,12.60
2022-12-22T18:03:15.870Z,12.88
2022-12-22T18:05:45.289Z,11.88
2022-12-22T18:08:21.131Z,13.32
2022-12-22T18:10:48.846Z,13.93
2022-12-22T18:13:25.948Z,12.95
2022-12-22T18:15:54.989Z,14.38
2022-12-22T18:18:22.602Z,15.40
2022-12-22T18:21:06.222Z,14.52
2022-12-22T18:23:36.876Z,15.40
2022-12-22T18:26:05.815Z,14.80
2022-12-22T18:28:33.195Z,16.75
2022-12-22T18:31:00.546Z,15.88
2022-12-22T18:33:27.839Z,16.80
2022-12-22T18:35:55.138Z,17.05
2022-12-22T18:38:27.086Z,17.65
2022-12-22T18:40:54.803Z,18.77
2022-12-22T18:43:22.212Z,20.67
2022-12-22T18:45:49.765Z,19.27
2022-12-22T18:48:17.082Z,20.75
2022-12-22T18:50:44.544Z,21.48
2022-12-22T18:53:25.919Z,23.83
2022-12-22T18:55:53.185Z,25.05
2022-12-22T18:58:20.553Z,25.92
2022-12-22T19:00:48.347Z,26.13
2022-12-22T19:03:18.836Z,27.02
2022-12-22T19:05:47.687Z,26.58
2022-12-22T19:08:19.095Z,28.23
2022-12-22T19:10:49.171Z,27.98
2022-12-22T19:13:27.857Z,29.95
2022-12-22T19:15:55.819Z,31.00
2022-12-22T19:18:27.074Z,31.33
2022-12-22T19:23:23.134Z,32.17
2022-12-22T19:25:54.169Z,33.15
2022-12-22T19:28:42.125Z,34.38
2022-12-22T19:31:11.693Z,32.92
2022-12-22T19:33:43.202Z,33.13
2022-12-22T19:36:27.408Z,33.60
2022-12-22T19:39:03.449Z,35.60
2022-12-22T19:41:50.669Z,35.75
2022-12-22T19:44:21.739Z,37.30
2022-12-22T19:46:49.156Z,37.70
2022-12-22T19:49:17.498Z,38.22
2022-12-22T19:51:44.821Z,37.97
2022-12-22T19:54:12.194Z,36.78
2022-12-22T19:56:39.701Z,38.33
2022-12-22T19:59:08.095Z,39.85
2022-12-22T20:01:35.857Z,38.90
2022-12-22T20:04:03.194Z,39.33
2022-12-22T20:06:30.440Z,38.25
2022-12-22T20:09:01.727Z,36.90
2022-12-22T20:11:29.166Z,39.28
2022-12-22T20:13:56.541Z,38.47
2022-12-22T20:16:24.045Z,40.90
2022-12-22T20:18:51.535Z,40.90
2022-12-22T20:21:22.269Z,40.25
2022-12-22T20:23:50.508Z,39.10
2022-12-22T20:26:20.189Z,38.67
2022-12-22T20:28:49.630Z,40.63
2022-12-22T20:31:17.449Z,39.13
2022-12-22T20:33:44.841Z,60.50
2022-12-22T20:36:17.946Z,52.47
2022-12-22T20:38:45.470Z,39.88
2022-12-22T20:41:12.833Z,38.80
2022-12-22T20:43:40.247Z,37.70
2022-12-22T20:46:12.993Z,38.10
2022-12-22T20:48:42.457Z,39.80
2022-12-22T20:51:12.439Z,39.40
2022-12-22T20:53:39.792Z,39.25
2022-12-22T20:56:18.714Z,40.63
2022-12-22T20:58:46.104Z,39.88
2022-12-22T21:01:13.615Z,39.83
2022-12-22T21:03:41.001Z,38.83
2022-12-22T21:06:22.758Z,41.78
2022-12-22T21:11:17.191Z,38.50
2022-12-22T21:13:44.437Z,39.67
2022-12-22T21:16:20.302Z,39.75
2022-12-22T21:18:47.729Z,41.22
2022-12-22T21:21:15.141Z,40.30
2022-12-22T21:23:42.400Z,42.95
2022-12-22T21:26:18.778Z,40.35
2022-12-22T21:28:46.614Z,41.40
2022-12-22T21:31:14.118Z,41.65
2022-12-22T21:33:41.747Z,46.35
2022-12-22T21:36:16.228Z,44.58
2022-12-22T21:38:43.628Z,45.45
2022-12-22T21:41:10.920Z,44.63
2022-12-22T21:43:38.171Z,142.80
2022-12-22T21:46:06.344Z,106.05
2022-12-22T21:48:35.040Z,54.63
2022-12-22T21:51:02.339Z,45.90
2022-12-22T21:53:29.633Z,47.40
2022-12-22T21:55:57.007Z,44.95
2022-12-22T21:58:24.303Z,45.45
2022-12-22T22:00:51.554Z,43.70
2022-12-22T22:03:18.912Z,47.00
2022-12-22T22:05:48.031Z,47.40
2022-12-22T22:08:15.362Z,55.50
2022-12-22T22:10:43.529Z,53.20
2022-12-22T22:13:15.293Z,55.25
2022-12-22T22:15:42.896Z,52.97
2022-12-22T22:18:15.104Z,50.17
2022-12-22T22:20:42.441Z,51.83
2022-12-22T22:23:11.547Z,52.90
2022-12-22T22:25:39.016Z,50.92
2022-12-22T22:28:06.401Z,50.05
2022-12-22T22:30:33.815Z,52.00
2022-12-22T22:33:01.059Z,50.97
2022-12-22T22:35:28.400Z,51.50
2022-12-22T22:37:55.997Z,50.15
2022-12-22T22:40:23.494Z,48.70
2022-12-22T22:42:50.831Z,49.53
2022-12-22T22:45:24.501Z,49.25
2022-12-22T22:47:52.337Z,51.83
2022-12-22T22:50:23.287Z,50.50
2022-12-22T22:52:50.978Z,49.63
2022-12-22T22:55:18.318Z,50.92
2022-12-22T22:57:45.619Z,48.83
2022-12-22T23:00:14.284Z,49.85
2022-12-22T23:02:41.671Z,50.60
2022-12-22T23:05:09.566Z,50.70
2022-12-22T23:07:37.273Z,49.95
2022-12-22T23:10:05.490Z,49.45
2022-12-22T23:12:33.048Z,49.10
2022-12-22T23:15:01.945Z,49.42
2022-12-22T23:17:29.846Z,50.70
2022-12-22T23:19:57.420Z,50.35
2022-12-22T23:22:24.820Z,49.75
2022-12-22T23:24:52.068Z,48.63
2022-12-22T23:27:19.428Z,49.60
2022-12-22T23:29:46.707Z,49.95
2022-12-22T23:32:14.002Z,50.15
2022-12-22T23:34:41.281Z,48.97
2022-12-22T23:37:12.136Z,155.32
2022-12-22T23:39:42.511Z,110.50
2022-12-22T23:42:09.791Z,57.47
2022-12-22T23:44:37.046Z,51.63
2022-12-22T23:47:04.414Z,50.08
2022-12-22T23:49:31.784Z,49.83
2022-12-22T23:51:59.033Z,49.78
2022-12-22T23:54:26.349Z,51.45
2022-12-22T23:56:53.875Z,50.88
2022-12-22T23:59:21.214Z,49.03
